sensor_id;sensor_type;location;lat;lon;timestamp;P1;durP1;ratioP1;P2;durP2;ratioP2
17441;SDS011;8838;50.144;8.176;2023-04-29T00:00:02;4.65;;;2.30;;
17441;SDS011;8838;50.144;8.176;2023-04-29T00:02:30;1.83;;;1.70;;
17441;SDS011;8838;50.144;8.176;2023-04-29T00:04:59;2.50;;;2.30;;
17441;SDS011;8838;50.144;8.176;2023-04-29T00:07:28;2.17;;;1.90;;
17441;SDS011;8838;50.144;8.176;2023-04-29T00:09:56;2.80;;;1.90;;
17441;SDS011;8838;50.144;8.176;2023-04-29T00:12:23;1.92;;;1.77;;
17441;SDS011;8838;50.144;8.176;2023-04-29T00:14:50;6.72;;;2.08;;
17441;SDS011;8838;50.144;8.176;2023-04-29T00:17:17;2.40;;;2.00;;
17441;SDS011;8838;50.144;8.176;2023-04-29T00:19:43;2.00;;;1.80;;
17441;SDS011;8838;50.144;8.176;2023-04-29T00:22:11;2.60;;;1.70;;
17441;SDS011;8838;50.144;8.176;2023-04-29T00:24:38;4.53;;;1.90;;
17441;SDS011;8838;50.144;8.176;2023-04-29T00:27:05;3.95;;;2.03;;
17441;SDS011;8838;50.144;8.176;2023-04-29T00:29:32;1.98;;;1.77;;
17441;SDS011;8838;50.144;8.176;2023-04-29T00:31:59;3.67;;;2.00;;
17441;SDS011;8838;50.144;8.176;2023-04-29T00:34:26;3.60;;;2.25;;
17441;SDS011;8838;50.144;8.176;2023-04-29T00:36:52;2.50;;;2.20;;
17441;SDS011;8838;50.144;8.176;2023-04-29T00:39:21;2.10;;;1.90;;
17441;SDS011;8838;50.144;8.176;2023-04-29T00:41:48;2.30;;;2.10;;
17441;SDS011;8838;50.144;8.176;2023-04-29T00:44:15;2.47;;;2.17;;
17441;SDS011;8838;50.144;8.176;2023-04-29T00:46:42;3.03;;;2.50;;
17441;SDS011;8838;50.144;8.176;2023-04-29T00:49:09;4.85;;;2.97;;
17441;SDS011;8838;50.144;8.176;2023-04-29T00:51:36;4.85;;;3.05;;
17441;SDS011;8838;50.144;8.176;2023-04-29T00:54:05;7.43;;;3.10;;
17441;SDS011;8838;50.144;8.176;2023-04-29T00:56:34;6.35;;;3.03;;
17441;SDS011;8838;50.144;8.176;2023-04-29T00:59:02;3.97;;;3.17;;
17441;SDS011;8838;50.144;8.176;2023-04-29T01:01:30;3.47;;;2.42;;
17441;SDS011;8838;50.144;8.176;2023-04-29T01:03:57;3.35;;;2.65;;
17441;SDS011;8838;50.144;8.176;2023-04-29T01:06:25;2.15;;;1.95;;
17441;SDS011;8838;50.144;8.176;2023-04-29T01:09:06;5.05;;;1.90;;
17441;SDS011;8838;50.144;8.176;2023-04-29T01:11:47;1.70;;;1.60;;
17441;SDS011;8838;50.144;8.176;2023-04-29T01:14:20;3.85;;;2.00;;
17441;SDS011;8838;50.144;8.176;2023-04-29T01:16:50;5.07;;;2.83;;
17441;SDS011;8838;50.144;8.176;2023-04-29T01:19:20;3.85;;;2.60;;
17441;SDS011;8838;50.144;8.176;2023-04-29T01:21:58;2.92;;;2.72;;
17441;SDS011;8838;50.144;8.176;2023-04-29T01:24:26;3.47;;;3.17;;
17441;SDS011;8838;50.144;8.176;2023-04-29T01:26:54;6.03;;;3.03;;
17441;SDS011;8838;50.144;8.176;2023-04-29T01:29:27;4.93;;;3.72;;
17441;SDS011;8838;50.144;8.176;2023-04-29T01:32:02;5.38;;;4.82;;
17441;SDS011;8838;50.144;8.176;2023-04-29T01:34:33;6.70;;;4.70;;
17441;SDS011;8838;50.144;8.176;2023-04-29T01:37:06;7.38;;;4.90;;
17441;SDS011;8838;50.144;8.176;2023-04-29T01:39:44;6.38;;;5.70;;
17441;SDS011;8838;50.144;8.176;2023-04-29T01:42:14;7.55;;;5.50;;
17441;SDS011;8838;50.144;8.176;2023-04-29T01:44:44;6.28;;;5.68;;
17441;SDS011;8838;50.144;8.176;2023-04-29T01:47:12;7.47;;;5.97;;
17441;SDS011;8838;50.144;8.176;2023-04-29T01:49:40;8.35;;;6.80;;
17441;SDS011;8838;50.144;8.176;2023-04-29T01:52:06;8.65;;;6.30;;
17441;SDS011;8838;50.144;8.176;2023-04-29T01:54:33;7.45;;;6.65;;
17441;SDS011;8838;50.144;8.176;2023-04-29T01:57:02;6.45;;;5.82;;
17441;SDS011;8838;50.144;8.176;2023-04-29T01:59:29;9.25;;;6.88;;
17441;SDS011;8838;50.144;8.176;2023-04-29T02:01:55;8.27;;;7.32;;
17441;SDS011;8838;50.144;8.176;2023-04-29T02:04:23;7.75;;;7.05;;
17441;SDS011;8838;50.144;8.176;2023-04-29T02:06:50;8.20;;;7.30;;
17441;SDS011;8838;50.144;8.176;2023-04-29T02:09:17;7.80;;;7.10;;
17441;SDS011;8838;50.144;8.176;2023-04-29T02:11:44;8.23;;;7.25;;
17441;SDS011;8838;50.144;8.176;2023-04-29T02:14:12;9.52;;;7.55;;
17441;SDS011;8838;50.144;8.176;2023-04-29T02:16:39;7.97;;;7.18;;
17441;SDS011;8838;50.144;8.176;2023-04-29T02:19:08;7.63;;;6.60;;
17441;SDS011;8838;50.144;8.176;2023-04-29T02:21:35;7.43;;;6.72;;
17441;SDS011;8838;50.144;8.176;2023-04-29T02:24:04;7.13;;;6.40;;
17441;SDS011;8838;50.144;8.176;2023-04-29T02:26:31;8.13;;;7.05;;
17441;SDS011;8838;50.144;8.176;2023-04-29T02:28:58;9.13;;;7.53;;
17441;SDS011;8838;50.144;8.176;2023-04-29T02:31:27;9.18;;;7.35;;
17441;SDS011;8838;50.144;8.176;2023-04-29T02:33:54;10.43;;;7.95;;
17441;SDS011;8838;50.144;8.176;2023-04-29T02:36:20;18.55;;;11.10;;
17441;SDS011;8838;50.144;8.176;2023-04-29T02:38:48;18.50;;;12.38;;
17441;SDS011;8838;50.144;8.176;2023-04-29T02:41:15;18.25;;;13.30;;
17441;SDS011;8838;50.144;8.176;2023-04-29T02:43:42;20.10;;;13.88;;
17441;SDS011;8838;50.144;8.176;2023-04-29T02:46:09;18.88;;;13.85;;
17441;SDS011;8838;50.144;8.176;2023-04-29T02:48:37;20.95;;;14.68;;
17441;SDS011;8838;50.144;8.176;2023-04-29T02:51:04;18.95;;;14.32;;
17441;SDS011;8838;50.144;8.176;2023-04-29T02:53:31;20.48;;;15.57;;
17441;SDS011;8838;50.144;8.176;2023-04-29T02:55:58;22.25;;;15.90;;
17441;SDS011;8838;50.144;8.176;2023-04-29T02:58:25;23.42;;;17.50;;
17441;SDS011;8838;50.144;8.176;2023-04-29T03:00:52;24.38;;;17.10;;
17441;SDS011;8838;50.144;8.176;2023-04-29T03:03:18;26.70;;;17.92;;
17441;SDS011;8838;50.144;8.176;2023-04-29T03:05:46;24.75;;;16.60;;
17441;SDS011;8838;50.144;8.176;2023-04-29T03:08:14;24.05;;;17.05;;
17441;SDS011;8838;50.144;8.176;2023-04-29T03:10:41;26.30;;;18.33;;
17441;SDS011;8838;50.144;8.176;2023-04-29T03:13:07;24.38;;;17.98;;
17441;SDS011;8838;50.144;8.176;2023-04-29T03:15:34;24.13;;;17.85;;
17441;SDS011;8838;50.144;8.176;2023-04-29T03:18:02;26.23;;;18.63;;
17441;SDS011;8838;50.144;8.176;2023-04-29T03:20:29;24.23;;;18.52;;
17441;SDS011;8838;50.144;8.176;2023-04-29T03:22:58;25.85;;;18.75;;
17441;SDS011;8838;50.144;8.176;2023-04-29T03:25:25;26.58;;;19.15;;
17441;SDS011;8838;50.144;8.176;2023-04-29T03:27:52;33.03;;;19.75;;
17441;SDS011;8838;50.144;8.176;2023-04-29T03:30:19;26.25;;;17.95;;
17441;SDS011;8838;50.144;8.176;2023-04-29T03:32:46;25.52;;;18.23;;
17441;SDS011;8838;50.144;8.176;2023-04-29T03:35:13;27.10;;;18.83;;
17441;SDS011;8838;50.144;8.176;2023-04-29T03:37:40;25.60;;;19.30;;
17441;SDS011;8838;50.144;8.176;2023-04-29T03:40:10;25.83;;;18.80;;
17441;SDS011;8838;50.144;8.176;2023-04-29T03:42:38;28.10;;;20.50;;
17441;SDS011;8838;50.144;8.176;2023-04-29T03:45:05;29.85;;;21.00;;
17441;SDS011;8838;50.144;8.176;2023-04-29T03:47:32;27.92;;;19.85;;
17441;SDS011;8838;50.144;8.176;2023-04-29T03:50:00;29.25;;;19.92;;
17441;SDS011;8838;50.144;8.176;2023-04-29T03:52:26;28.98;;;20.80;;
17441;SDS011;8838;50.144;8.176;2023-04-29T03:54:53;27.88;;;19.98;;
17441;SDS011;8838;50.144;8.176;2023-04-29T03:57:21;31.88;;;20.23;;
17441;SDS011;8838;50.144;8.176;2023-04-29T03:59:48;28.63;;;20.35;;
17441;SDS011;8838;50.144;8.176;2023-04-29T04:02:15;31.92;;;20.65;;
17441;SDS011;8838;50.144;8.176;2023-04-29T04:04:42;29.63;;;19.60;;
17441;SDS011;8838;50.144;8.176;2023-04-29T04:07:08;30.95;;;20.48;;
17441;SDS011;8838;50.144;8.176;2023-04-29T04:09:35;27.15;;;18.85;;
17441;SDS011;8838;50.144;8.176;2023-04-29T04:12:02;29.27;;;19.45;;
17441;SDS011;8838;50.144;8.176;2023-04-29T04:14:31;30.58;;;19.42;;
17441;SDS011;8838;50.144;8.176;2023-04-29T04:16:58;28.05;;;19.15;;
17441;SDS011;8838;50.144;8.176;2023-04-29T04:19:25;29.05;;;19.33;;
17441;SDS011;8838;50.144;8.176;2023-04-29T04:21:53;29.48;;;19.15;;
17441;SDS011;8838;50.144;8.176;2023-04-29T04:24:19;29.88;;;19.88;;
17441;SDS011;8838;50.144;8.176;2023-04-29T04:26:46;28.63;;;19.77;;
17441;SDS011;8838;50.144;8.176;2023-04-29T04:29:13;28.05;;;18.90;;
17441;SDS011;8838;50.144;8.176;2023-04-29T04:31:41;27.10;;;19.20;;
17441;SDS011;8838;50.144;8.176;2023-04-29T04:34:09;28.65;;;19.20;;
17441;SDS011;8838;50.144;8.176;2023-04-29T04:36:35;29.52;;;19.30;;
17441;SDS011;8838;50.144;8.176;2023-04-29T04:39:02;31.23;;;20.20;;
17441;SDS011;8838;50.144;8.176;2023-04-29T04:41:29;28.65;;;19.38;;
17441;SDS011;8838;50.144;8.176;2023-04-29T04:43:56;27.33;;;19.40;;
17441;SDS011;8838;50.144;8.176;2023-04-29T04:46:23;27.88;;;18.77;;
17441;SDS011;8838;50.144;8.176;2023-04-29T04:48:51;27.63;;;19.73;;
17441;SDS011;8838;50.144;8.176;2023-04-29T04:51:18;28.83;;;18.15;;
17441;SDS011;8838;50.144;8.176;2023-04-29T04:53:45;25.55;;;17.65;;
17441;SDS011;8838;50.144;8.176;2023-04-29T04:56:12;25.50;;;17.55;;
17441;SDS011;8838;50.144;8.176;2023-04-29T04:58:38;26.05;;;17.10;;
17441;SDS011;8838;50.144;8.176;2023-04-29T05:01:05;29.13;;;17.77;;
17441;SDS011;8838;50.144;8.176;2023-04-29T05:03:32;27.67;;;16.90;;
17441;SDS011;8838;50.144;8.176;2023-04-29T05:06:00;23.10;;;16.17;;
17441;SDS011;8838;50.144;8.176;2023-04-29T05:08:27;25.77;;;16.45;;
17441;SDS011;8838;50.144;8.176;2023-04-29T05:10:54;25.05;;;15.95;;
17441;SDS011;8838;50.144;8.176;2023-04-29T05:13:22;28.20;;;16.73;;
17441;SDS011;8838;50.144;8.176;2023-04-29T05:15:49;25.75;;;16.67;;
17441;SDS011;8838;50.144;8.176;2023-04-29T05:18:16;23.27;;;15.55;;
17441;SDS011;8838;50.144;8.176;2023-04-29T05:20:43;25.30;;;16.40;;
17441;SDS011;8838;50.144;8.176;2023-04-29T05:23:12;23.67;;;16.10;;
17441;SDS011;8838;50.144;8.176;2023-04-29T05:25:38;26.45;;;16.67;;
17441;SDS011;8838;50.144;8.176;2023-04-29T05:28:05;25.90;;;15.95;;
17441;SDS011;8838;50.144;8.176;2023-04-29T05:30:32;25.08;;;16.25;;
17441;SDS011;8838;50.144;8.176;2023-04-29T05:32:59;22.27;;;15.65;;
17441;SDS011;8838;50.144;8.176;2023-04-29T05:35:26;21.40;;;14.38;;
17441;SDS011;8838;50.144;8.176;2023-04-29T05:37:53;22.63;;;14.07;;
17441;SDS011;8838;50.144;8.176;2023-04-29T05:40:21;19.33;;;12.77;;
17441;SDS011;8838;50.144;8.176;2023-04-29T05:42:48;19.65;;;12.38;;
17441;SDS011;8838;50.144;8.176;2023-04-29T05:45:15;18.92;;;12.30;;
17441;SDS011;8838;50.144;8.176;2023-04-29T05:47:42;16.10;;;11.57;;
17441;SDS011;8838;50.144;8.176;2023-04-29T05:50:09;17.67;;;11.65;;
17441;SDS011;8838;50.144;8.176;2023-04-29T05:52:36;15.15;;;10.27;;
17441;SDS011;8838;50.144;8.176;2023-04-29T05:55:03;16.60;;;9.82;;
17441;SDS011;8838;50.144;8.176;2023-04-29T05:57:31;13.88;;;9.63;;
17441;SDS011;8838;50.144;8.176;2023-04-29T05:59:58;14.20;;;9.43;;
17441;SDS011;8838;50.144;8.176;2023-04-29T06:02:25;13.15;;;9.32;;
17441;SDS011;8838;50.144;8.176;2023-04-29T06:04:52;14.57;;;9.13;;
17441;SDS011;8838;50.144;8.176;2023-04-29T06:07:19;15.52;;;9.30;;
17441;SDS011;8838;50.144;8.176;2023-04-29T06:09:47;14.13;;;9.57;;
17441;SDS011;8838;50.144;8.176;2023-04-29T06:12:13;16.08;;;9.73;;
17441;SDS011;8838;50.144;8.176;2023-04-29T06:14:42;14.93;;;9.60;;
17441;SDS011;8838;50.144;8.176;2023-04-29T06:17:09;16.25;;;9.57;;
17441;SDS011;8838;50.144;8.176;2023-04-29T06:19:36;15.70;;;9.23;;
17441;SDS011;8838;50.144;8.176;2023-04-29T06:22:03;16.38;;;9.35;;
17441;SDS011;8838;50.144;8.176;2023-04-29T06:24:30;14.82;;;8.95;;
17441;SDS011;8838;50.144;8.176;2023-04-29T06:26:57;15.90;;;9.77;;
17441;SDS011;8838;50.144;8.176;2023-04-29T06:29:24;14.77;;;9.30;;
17441;SDS011;8838;50.144;8.176;2023-04-29T06:31:52;16.88;;;10.40;;
17441;SDS011;8838;50.144;8.176;2023-04-29T06:34:20;15.57;;;10.02;;
17441;SDS011;8838;50.144;8.176;2023-04-29T06:36:46;20.45;;;10.70;;
17441;SDS011;8838;50.144;8.176;2023-04-29T06:39:13;15.50;;;10.52;;
17441;SDS011;8838;50.144;8.176;2023-04-29T06:41:40;17.25;;;11.45;;
17441;SDS011;8838;50.144;8.176;2023-04-29T06:44:07;17.83;;;11.40;;
17441;SDS011;8838;50.144;8.176;2023-04-29T06:46:34;18.00;;;11.20;;
17441;SDS011;8838;50.144;8.176;2023-04-29T06:49:02;16.02;;;10.65;;
17441;SDS011;8838;50.144;8.176;2023-04-29T06:51:30;18.10;;;12.02;;
17441;SDS011;8838;50.144;8.176;2023-04-29T06:53:57;21.35;;;11.77;;
17441;SDS011;8838;50.144;8.176;2023-04-29T06:56:24;17.55;;;11.40;;
17441;SDS011;8838;50.144;8.176;2023-04-29T06:58:51;18.60;;;11.82;;
17441;SDS011;8838;50.144;8.176;2023-04-29T07:01:18;18.83;;;11.75;;
17441;SDS011;8838;50.144;8.176;2023-04-29T07:03:44;18.88;;;12.85;;
17441;SDS011;8838;50.144;8.176;2023-04-29T07:06:12;18.02;;;11.73;;
17441;SDS011;8838;50.144;8.176;2023-04-29T07:08:39;17.70;;;11.55;;
17441;SDS011;8838;50.144;8.176;2023-04-29T07:11:06;19.58;;;11.93;;
17441;SDS011;8838;50.144;8.176;2023-04-29T07:13:33;18.42;;;11.70;;
17441;SDS011;8838;50.144;8.176;2023-04-29T07:16:00;19.88;;;11.63;;
17441;SDS011;8838;50.144;8.176;2023-04-29T07:18:26;20.50;;;11.90;;
17441;SDS011;8838;50.144;8.176;2023-04-29T07:20:53;18.00;;;11.88;;
17441;SDS011;8838;50.144;8.176;2023-04-29T07:23:21;20.27;;;12.23;;
17441;SDS011;8838;50.144;8.176;2023-04-29T07:25:48;18.30;;;11.55;;
17441;SDS011;8838;50.144;8.176;2023-04-29T07:28:15;22.15;;;12.25;;
17441;SDS011;8838;50.144;8.176;2023-04-29T07:30:42;18.45;;;11.90;;
17441;SDS011;8838;50.144;8.176;2023-04-29T07:33:09;19.40;;;12.00;;
17441;SDS011;8838;50.144;8.176;2023-04-29T07:35:36;18.50;;;12.18;;
17441;SDS011;8838;50.144;8.176;2023-04-29T07:38:05;19.13;;;12.43;;
17441;SDS011;8838;50.144;8.176;2023-04-29T07:40:33;20.60;;;12.52;;
17441;SDS011;8838;50.144;8.176;2023-04-29T07:43:00;20.73;;;12.88;;
17441;SDS011;8838;50.144;8.176;2023-04-29T07:45:29;18.50;;;11.95;;
17441;SDS011;8838;50.144;8.176;2023-04-29T07:47:56;19.55;;;12.20;;
17441;SDS011;8838;50.144;8.176;2023-04-29T07:50:23;19.17;;;12.55;;
17441;SDS011;8838;50.144;8.176;2023-04-29T07:52:50;20.58;;;12.63;;
17441;SDS011;8838;50.144;8.176;2023-04-29T07:55:19;17.60;;;11.70;;
17441;SDS011;8838;50.144;8.176;2023-04-29T07:57:48;17.92;;;11.35;;
17441;SDS011;8838;50.144;8.176;2023-04-29T08:00:14;18.88;;;11.30;;
17441;SDS011;8838;50.144;8.176;2023-04-29T08:02:41;15.80;;;11.63;;
17441;SDS011;8838;50.144;8.176;2023-04-29T08:05:08;17.73;;;11.73;;
17441;SDS011;8838;50.144;8.176;2023-04-29T08:07:35;16.17;;;11.90;;
17441;SDS011;8838;50.144;8.176;2023-04-29T08:10:02;19.23;;;12.32;;
17441;SDS011;8838;50.144;8.176;2023-04-29T08:12:29;21.35;;;13.40;;
17441;SDS011;8838;50.144;8.176;2023-04-29T08:14:58;23.90;;;15.30;;
17441;SDS011;8838;50.144;8.176;2023-04-29T08:17:24;25.40;;;14.60;;
17441;SDS011;8838;50.144;8.176;2023-04-29T08:19:51;17.98;;;10.73;;
17441;SDS011;8838;50.144;8.176;2023-04-29T08:22:18;14.70;;;10.18;;
17441;SDS011;8838;50.144;8.176;2023-04-29T08:24:45;13.75;;;9.43;;
17441;SDS011;8838;50.144;8.176;2023-04-29T08:27:12;16.80;;;9.98;;
17441;SDS011;8838;50.144;8.176;2023-04-29T08:29:40;14.43;;;9.57;;
17441;SDS011;8838;50.144;8.176;2023-04-29T08:32:08;17.17;;;10.20;;
17441;SDS011;8838;50.144;8.176;2023-04-29T08:34:35;13.77;;;8.77;;
17441;SDS011;8838;50.144;8.176;2023-04-29T08:37:02;16.00;;;10.13;;
17441;SDS011;8838;50.144;8.176;2023-04-29T08:39:29;15.23;;;9.10;;
17441;SDS011;8838;50.144;8.176;2023-04-29T08:41:56;13.90;;;8.40;;
17441;SDS011;8838;50.144;8.176;2023-04-29T08:44:24;12.93;;;7.90;;
17441;SDS011;8838;50.144;8.176;2023-04-29T08:46:51;11.98;;;8.18;;
17441;SDS011;8838;50.144;8.176;2023-04-29T08:49:20;11.32;;;7.13;;
17441;SDS011;8838;50.144;8.176;2023-04-29T08:51:47;14.20;;;7.38;;
17441;SDS011;8838;50.144;8.176;2023-04-29T08:54:15;10.93;;;7.63;;
17441;SDS011;8838;50.144;8.176;2023-04-29T08:56:42;9.75;;;7.03;;
17441;SDS011;8838;50.144;8.176;2023-04-29T08:59:11;13.25;;;7.85;;
17441;SDS011;8838;50.144;8.176;2023-04-29T09:01:40;12.32;;;7.28;;
17441;SDS011;8838;50.144;8.176;2023-04-29T09:04:08;10.32;;;7.22;;
17441;SDS011;8838;50.144;8.176;2023-04-29T09:06:45;9.75;;;6.82;;
17441;SDS011;8838;50.144;8.176;2023-04-29T09:09:13;9.15;;;6.18;;
17441;SDS011;8838;50.144;8.176;2023-04-29T09:11:41;9.02;;;6.40;;
17441;SDS011;8838;50.144;8.176;2023-04-29T09:14:07;9.95;;;6.20;;
17441;SDS011;8838;50.144;8.176;2023-04-29T09:16:34;9.98;;;6.45;;
17441;SDS011;8838;50.144;8.176;2023-04-29T09:19:02;10.20;;;6.35;;
17441;SDS011;8838;50.144;8.176;2023-04-29T09:21:29;8.55;;;5.82;;
17441;SDS011;8838;50.144;8.176;2023-04-29T09:23:59;9.85;;;6.72;;
17441;SDS011;8838;50.144;8.176;2023-04-29T09:26:26;8.88;;;6.30;;
17441;SDS011;8838;50.144;8.176;2023-04-29T09:29:05;9.00;;;6.65;;
17441;SDS011;8838;50.144;8.176;2023-04-29T09:31:33;9.75;;;6.32;;
17441;SDS011;8838;50.144;8.176;2023-04-29T09:34:00;9.05;;;6.40;;
17441;SDS011;8838;50.144;8.176;2023-04-29T09:36:34;8.00;;;5.43;;
17441;SDS011;8838;50.144;8.176;2023-04-29T09:39:03;8.23;;;5.45;;
17441;SDS011;8838;50.144;8.176;2023-04-29T09:41:35;7.22;;;4.75;;
17441;SDS011;8838;50.144;8.176;2023-04-29T09:44:03;7.00;;;5.30;;
17441;SDS011;8838;50.144;8.176;2023-04-29T09:46:31;7.07;;;5.07;;
17441;SDS011;8838;50.144;8.176;2023-04-29T09:48:58;7.10;;;5.18;;
17441;SDS011;8838;50.144;8.176;2023-04-29T09:51:25;6.82;;;5.38;;
17441;SDS011;8838;50.144;8.176;2023-04-29T09:53:52;8.27;;;5.68;;
17441;SDS011;8838;50.144;8.176;2023-04-29T09:56:21;7.05;;;4.82;;
17441;SDS011;8838;50.144;8.176;2023-04-29T09:58:47;9.25;;;5.75;;
17441;SDS011;8838;50.144;8.176;2023-04-29T10:01:14;6.90;;;5.75;;
17441;SDS011;8838;50.144;8.176;2023-04-29T10:03:45;6.38;;;5.15;;
17441;SDS011;8838;50.144;8.176;2023-04-29T10:06:13;7.80;;;5.65;;
17441;SDS011;8838;50.144;8.176;2023-04-29T10:08:43;9.13;;;6.20;;
17441;SDS011;8838;50.144;8.176;2023-04-29T10:11:11;6.63;;;5.25;;
17441;SDS011;8838;50.144;8.176;2023-04-29T10:13:41;6.65;;;5.18;;
17441;SDS011;8838;50.144;8.176;2023-04-29T10:16:11;8.25;;;5.43;;
17441;SDS011;8838;50.144;8.176;2023-04-29T10:18:48;6.28;;;4.97;;
17441;SDS011;8838;50.144;8.176;2023-04-29T10:21:20;6.03;;;4.60;;
17441;SDS011;8838;50.144;8.176;2023-04-29T10:23:50;7.25;;;4.32;;
17441;SDS011;8838;50.144;8.176;2023-04-29T10:26:18;4.78;;;3.78;;
17441;SDS011;8838;50.144;8.176;2023-04-29T10:28:47;6.38;;;4.32;;
17441;SDS011;8838;50.144;8.176;2023-04-29T10:31:16;7.82;;;4.30;;
17441;SDS011;8838;50.144;8.176;2023-04-29T10:33:45;6.82;;;4.15;;
17441;SDS011;8838;50.144;8.176;2023-04-29T10:36:14;5.70;;;4.18;;
17441;SDS011;8838;50.144;8.176;2023-04-29T10:38:43;8.35;;;4.72;;
17441;SDS011;8838;50.144;8.176;2023-04-29T10:41:16;6.88;;;4.32;;
17441;SDS011;8838;50.144;8.176;2023-04-29T10:43:48;6.32;;;4.53;;
17441;SDS011;8838;50.144;8.176;2023-04-29T10:46:15;6.22;;;4.32;;
17441;SDS011;8838;50.144;8.176;2023-04-29T10:48:43;5.90;;;4.50;;
17441;SDS011;8838;50.144;8.176;2023-04-29T10:51:10;5.55;;;4.07;;
17441;SDS011;8838;50.144;8.176;2023-04-29T10:56:36;3.55;;;3.15;;
17441;SDS011;8838;50.144;8.176;2023-04-29T10:59:05;3.60;;;3.08;;
17441;SDS011;8838;50.144;8.176;2023-04-29T11:01:39;3.08;;;2.78;;
17441;SDS011;8838;50.144;8.176;2023-04-29T11:04:10;3.33;;;2.80;;
17441;SDS011;8838;50.144;8.176;2023-04-29T11:06:38;3.28;;;2.83;;
17441;SDS011;8838;50.144;8.176;2023-04-29T11:09:07;3.33;;;3.00;;
17441;SDS011;8838;50.144;8.176;2023-04-29T11:11:46;3.50;;;2.90;;
17441;SDS011;8838;50.144;8.176;2023-04-29T11:14:31;3.92;;;3.40;;
17441;SDS011;8838;50.144;8.176;2023-04-29T11:17:06;5.10;;;3.65;;
17441;SDS011;8838;50.144;8.176;2023-04-29T11:19:35;4.45;;;3.70;;
17441;SDS011;8838;50.144;8.176;2023-04-29T11:22:10;4.00;;;3.60;;
17441;SDS011;8838;50.144;8.176;2023-04-29T11:24:52;4.75;;;4.10;;
17441;SDS011;8838;50.144;8.176;2023-04-29T11:27:20;4.82;;;4.18;;
17441;SDS011;8838;50.144;8.176;2023-04-29T11:29:51;6.22;;;4.13;;
17441;SDS011;8838;50.144;8.176;2023-04-29T11:32:22;4.57;;;3.85;;
17441;SDS011;8838;50.144;8.176;2023-04-29T11:34:50;5.65;;;4.05;;
17441;SDS011;8838;50.144;8.176;2023-04-29T11:37:20;4.32;;;3.90;;
17441;SDS011;8838;50.144;8.176;2023-04-29T11:39:48;4.78;;;3.97;;
17441;SDS011;8838;50.144;8.176;2023-04-29T11:42:19;4.50;;;4.07;;
17441;SDS011;8838;50.144;8.176;2023-04-29T11:44:49;4.85;;;4.32;;
17441;SDS011;8838;50.144;8.176;2023-04-29T11:47:18;4.68;;;4.13;;
17441;SDS011;8838;50.144;8.176;2023-04-29T11:49:46;6.70;;;4.20;;
17441;SDS011;8838;50.144;8.176;2023-04-29T11:52:13;5.70;;;3.88;;
17441;SDS011;8838;50.144;8.176;2023-04-29T11:54:40;5.00;;;4.28;;
17441;SDS011;8838;50.144;8.176;2023-04-29T11:57:09;4.60;;;4.10;;
17441;SDS011;8838;50.144;8.176;2023-04-29T11:59:36;5.97;;;4.50;;
17441;SDS011;8838;50.144;8.176;2023-04-29T12:02:04;4.63;;;4.10;;
17441;SDS011;8838;50.144;8.176;2023-04-29T12:04:32;4.63;;;4.13;;
17441;SDS011;8838;50.144;8.176;2023-04-29T12:07:01;7.38;;;4.13;;
17441;SDS011;8838;50.144;8.176;2023-04-29T12:09:28;5.22;;;4.20;;
17441;SDS011;8838;50.144;8.176;2023-04-29T12:12:06;4.50;;;4.10;;
17441;SDS011;8838;50.144;8.176;2023-04-29T12:14:33;4.57;;;4.18;;
17441;SDS011;8838;50.144;8.176;2023-04-29T12:17:00;4.80;;;4.30;;
17441;SDS011;8838;50.144;8.176;2023-04-29T12:19:28;5.22;;;4.40;;
17441;SDS011;8838;50.144;8.176;2023-04-29T12:21:57;7.95;;;6.38;;
17441;SDS011;8838;50.144;8.176;2023-04-29T12:24:24;5.00;;;4.38;;
17441;SDS011;8838;50.144;8.176;2023-04-29T12:26:51;4.38;;;3.97;;
17441;SDS011;8838;50.144;8.176;2023-04-29T12:29:20;4.95;;;4.20;;
17441;SDS011;8838;50.144;8.176;2023-04-29T12:31:48;4.22;;;3.83;;
17441;SDS011;8838;50.144;8.176;2023-04-29T12:34:15;4.47;;;4.07;;
17441;SDS011;8838;50.144;8.176;2023-04-29T12:36:43;5.18;;;3.85;;
17441;SDS011;8838;50.144;8.176;2023-04-29T12:39:10;4.10;;;3.70;;
17441;SDS011;8838;50.144;8.176;2023-04-29T12:41:38;4.60;;;4.00;;
17441;SDS011;8838;50.144;8.176;2023-04-29T12:44:05;5.68;;;4.32;;
17441;SDS011;8838;50.144;8.176;2023-04-29T12:46:34;4.93;;;4.43;;
17441;SDS011;8838;50.144;8.176;2023-04-29T12:49:02;5.00;;;3.90;;
17441;SDS011;8838;50.144;8.176;2023-04-29T12:51:29;4.78;;;4.25;;
17441;SDS011;8838;50.144;8.176;2023-04-29T12:53:58;6.65;;;5.45;;
17441;SDS011;8838;50.144;8.176;2023-04-29T12:56:25;5.55;;;4.47;;
17441;SDS011;8838;50.144;8.176;2023-04-29T12:58:52;4.57;;;4.18;;
17441;SDS011;8838;50.144;8.176;2023-04-29T13:01:19;7.45;;;4.63;;
17441;SDS011;8838;50.144;8.176;2023-04-29T13:03:46;4.63;;;4.20;;
17441;SDS011;8838;50.144;8.176;2023-04-29T13:06:13;4.82;;;4.30;;
17441;SDS011;8838;50.144;8.176;2023-04-29T13:08:40;6.03;;;4.93;;
17441;SDS011;8838;50.144;8.176;2023-04-29T13:11:08;5.78;;;5.07;;
17441;SDS011;8838;50.144;8.176;2023-04-29T13:13:37;7.82;;;4.95;;
17441;SDS011;8838;50.144;8.176;2023-04-29T13:16:04;6.78;;;5.40;;
17441;SDS011;8838;50.144;8.176;2023-04-29T13:18:31;5.55;;;4.97;;
17441;SDS011;8838;50.144;8.176;2023-04-29T13:20:58;9.90;;;6.13;;
17441;SDS011;8838;50.144;8.176;2023-04-29T13:23:25;8.63;;;5.70;;
17441;SDS011;8838;50.144;8.176;2023-04-29T13:25:52;8.20;;;6.88;;
17441;SDS011;8838;50.144;8.176;2023-04-29T13:28:20;9.05;;;7.15;;
17441;SDS011;8838;50.144;8.176;2023-04-29T13:30:47;8.88;;;7.93;;
17441;SDS011;8838;50.144;8.176;2023-04-29T13:33:14;9.57;;;7.95;;
17441;SDS011;8838;50.144;8.176;2023-04-29T13:35:41;10.45;;;8.07;;
17441;SDS011;8838;50.144;8.176;2023-04-29T13:38:08;10.98;;;9.02;;
17441;SDS011;8838;50.144;8.176;2023-04-29T13:40:35;11.55;;;9.75;;
17441;SDS011;8838;50.144;8.176;2023-04-29T13:43:02;10.85;;;8.73;;
17441;SDS011;8838;50.144;8.176;2023-04-29T13:45:31;12.55;;;8.93;;
17441;SDS011;8838;50.144;8.176;2023-04-29T13:47:59;10.75;;;9.02;;
17441;SDS011;8838;50.144;8.176;2023-04-29T13:50:26;11.88;;;9.55;;
17441;SDS011;8838;50.144;8.176;2023-04-29T13:52:53;11.52;;;9.35;;
17441;SDS011;8838;50.144;8.176;2023-04-29T13:55:20;14.20;;;10.05;;
17441;SDS011;8838;50.144;8.176;2023-04-29T13:57:47;13.90;;;10.15;;
17441;SDS011;8838;50.144;8.176;2023-04-29T14:00:15;12.35;;;9.88;;
17441;SDS011;8838;50.144;8.176;2023-04-29T14:02:43;13.18;;;9.93;;
17441;SDS011;8838;50.144;8.176;2023-04-29T14:05:10;13.00;;;9.60;;
17441;SDS011;8838;50.144;8.176;2023-04-29T14:07:37;12.32;;;9.75;;
17441;SDS011;8838;50.144;8.176;2023-04-29T14:10:04;14.15;;;9.85;;
17441;SDS011;8838;50.144;8.176;2023-04-29T14:12:31;14.60;;;11.05;;
17441;SDS011;8838;50.144;8.176;2023-04-29T14:14:58;14.00;;;10.65;;
17441;SDS011;8838;50.144;8.176;2023-04-29T14:17:24;13.02;;;9.90;;
17441;SDS011;8838;50.144;8.176;2023-04-29T14:19:53;13.30;;;10.50;;
17441;SDS011;8838;50.144;8.176;2023-04-29T14:22:20;14.43;;;9.95;;
17441;SDS011;8838;50.144;8.176;2023-04-29T14:24:47;12.38;;;10.23;;
17441;SDS011;8838;50.144;8.176;2023-04-29T14:27:13;11.55;;;9.48;;
17441;SDS011;8838;50.144;8.176;2023-04-29T14:29:40;12.43;;;9.18;;
17441;SDS011;8838;50.144;8.176;2023-04-29T14:32:07;12.80;;;9.13;;
17441;SDS011;8838;50.144;8.176;2023-04-29T14:34:34;11.23;;;9.45;;
17441;SDS011;8838;50.144;8.176;2023-04-29T14:37:02;13.77;;;8.90;;
17441;SDS011;8838;50.144;8.176;2023-04-29T14:39:29;14.80;;;9.60;;
17441;SDS011;8838;50.144;8.176;2023-04-29T14:41:55;14.02;;;9.70;;
17441;SDS011;8838;50.144;8.176;2023-04-29T14:44:22;14.05;;;9.32;;
17441;SDS011;8838;50.144;8.176;2023-04-29T14:46:49;12.23;;;9.70;;
17441;SDS011;8838;50.144;8.176;2023-04-29T14:49:16;12.45;;;9.25;;
17441;SDS011;8838;50.144;8.176;2023-04-29T14:51:43;13.40;;;9.05;;
17441;SDS011;8838;50.144;8.176;2023-04-29T14:54:11;12.73;;;9.43;;